Time;durP1;ratioP1;P1;durP2;ratioP2;P2;SDS_P1;SDS_P2;PMS_P1;PMS_P2;Temp;Humidity;BMP_temperature;BMP_pressure;BME280_temperature;BME280_humidity;BME280_pressure;Samples;Min_cycle;Max_cycle;Signal;HPM_P1;HPM_P2
2023/04/07 00:01:51;;;;;;;9.50;3.30;;;5.10;99.90;;;;;;5033285;28;20432;-45
2023/04/07 00:04:17;;;;;;;6.55;3.50;;;5.10;99.90;;;;;;5033425;28;20084;-47
2023/04/07 00:06:42;;;;;;;6.13;3.45;;;5.10;99.90;;;;;;5033312;28;20358;-44
2023/04/07 00:09:12;;;;;;;6.72;3.33;;;5.00;99.90;;;;;;5033166;28;20076;-46
2023/04/07 00:11:37;;;;;;;9.85;3.47;;;5.00;99.90;;;;;;5033076;28;20072;-50
2023/04/07 00:14:03;;;;;;;6.57;3.40;;;5.00;99.90;;;;;;5033209;28;20030;-45
2023/04/07 00:16:29;;;;;;;6.97;3.30;;;5.00;99.90;;;;;;5032952;28;20437;-44
2023/04/07 00:18:54;;;;;;;6.82;3.30;;;5.00;99.90;;;;;;5033282;28;20083;-44
2023/04/07 00:21:20;;;;;;;6.82;3.35;;;5.00;99.90;;;;;;5032397;28;20374;-45
2023/04/07 00:23:46;;;;;;;7.10;3.38;;;5.10;99.90;;;;;;5032912;28;20021;-44
2023/04/07 00:26:12;;;;;;;9.05;3.60;;;5.10;99.90;;;;;;5032265;28;20547;-47
2023/04/07 00:28:37;;;;;;;9.32;3.85;;;5.10;99.90;;;;;;5031191;28;20025;-44
2023/04/07 00:31:03;;;;;;;8.00;3.13;;;5.00;99.90;;;;;;5030059;28;21371;-44
2023/04/07 00:33:29;;;;;;;8.50;3.53;;;5.00;99.90;;;;;;5031843;28;20116;-44
2023/04/07 00:35:57;;;;;;;6.60;3.30;;;5.00;99.90;;;;;;5032984;28;20496;-48
2023/04/07 00:38:23;;;;;;;6.28;3.25;;;5.00;99.90;;;;;;5032740;28;20071;-44
2023/04/07 00:40:49;;;;;;;7.60;3.65;;;4.90;99.90;;;;;;5032364;28;20053;-47
2023/04/07 00:43:15;;;;;;;7.15;3.45;;;4.90;99.90;;;;;;5032592;28;20041;-46
2023/04/07 00:45:41;;;;;;;6.63;3.53;;;4.90;99.90;;;;;;5032351;28;20139;-46
2023/04/07 00:48:06;;;;;;;5.45;3.50;;;4.80;99.90;;;;;;5032645;28;20408;-48
2023/04/07 00:50:32;;;;;;;8.02;3.97;;;4.80;99.90;;;;;;5032386;28;20024;-49
2023/04/07 00:52:58;;;;;;;7.45;3.13;;;4.80;99.90;;;;;;5032366;28;20101;-46
2023/04/07 00:55:24;;;;;;;7.50;3.40;;;4.70;99.90;;;;;;5032450;28;20025;-44
2023/04/07 00:57:50;;;;;;;6.55;3.30;;;4.70;99.90;;;;;;5026981;28;20381;-44
2023/04/07 01:00:16;;;;;;;6.82;3.00;;;4.70;99.90;;;;;;5023921;28;20044;-48
2023/04/07 01:02:48;;;;;;;7.68;3.42;;;4.70;99.90;;;;;;5032075;28;20033;-44
2023/04/07 01:05:37;;;;;;;6.38;3.17;;;4.60;99.90;;;;;;5032276;28;20056;-47
2023/04/07 01:08:15;;;;;;;7.18;3.17;;;4.50;99.90;;;;;;5031995;28;20436;-46
2023/04/07 01:10:59;;;;;;;7.22;3.17;;;4.50;99.90;;;;;;5030771;28;20041;-44
2023/04/07 01:13:34;;;;;;;9.13;3.22;;;4.50;99.90;;;;;;5031754;28;20543;-44
2023/04/07 01:16:04;;;;;;;6.22;3.10;;;4.50;99.90;;;;;;5027013;28;20087;-43
2023/04/07 01:18:34;;;;;;;;;;;4.50;99.90;;;;;;5032373;28;20100;-44
2023/04/07 01:21:06;;;;;;;5.85;3.20;;;4.50;99.90;;;;;;5031720;28;19905;-44
2023/04/07 01:24:04;;;;;;;8.80;3.40;;;4.40;99.90;;;;;;5031684;28;20029;-44
2023/04/07 01:26:32;;;;;;;5.50;2.80;;;4.40;99.90;;;;;;5031747;28;20096;-48
2023/04/07 01:29:16;;;;;;;7.15;3.28;;;4.40;99.90;;;;;;5031744;28;20025;-44
2023/04/07 01:31:43;;;;;;;7.18;3.13;;;4.40;99.90;;;;;;5031433;28;20461;-44
2023/04/07 01:34:10;;;;;;;7.13;2.70;;;4.40;99.90;;;;;;5030825;28;20033;-44
2023/04/07 01:36:37;;;;;;;6.38;2.67;;;4.40;99.90;;;;;;5030239;28;20502;-44
2023/04/07 01:39:04;;;;;;;11.05;3.00;;;4.40;99.90;;;;;;5031564;28;20036;-47
2023/04/07 01:41:30;;;;;;;9.00;3.55;;;4.40;99.90;;;;;;5031273;28;20120;-44
2023/04/07 01:43:57;;;;;;;6.97;3.65;;;4.30;99.90;;;;;;5031147;28;20548;-45
2023/04/07 01:46:23;;;;;;;6.53;3.53;;;4.20;99.90;;;;;;5031545;28;20059;-44
2023/04/07 01:48:50;;;;;;;6.45;3.58;;;4.00;99.90;;;;;;5031211;28;20064;-44
2023/04/07 01:51:17;;;;;;;7.38;3.50;;;3.90;99.90;;;;;;5030255;28;20067;-50
2023/04/07 01:53:45;;;;;;;7.97;3.70;;;3.70;99.90;;;;;;5031248;28;20048;-44
2023/04/07 01:56:11;;;;;;;9.07;3.90;;;3.60;99.90;;;;;;5031247;28;20026;-44
2023/04/07 01:58:36;;;;;;;7.75;3.40;;;3.50;99.90;;;;;;5031215;28;20040;-46
2023/04/07 02:01:02;;;;;;;6.10;3.17;;;3.50;99.90;;;;;;5031219;28;20021;-44
2023/04/07 02:03:41;;;;;;;8.98;3.35;;;3.50;99.90;;;;;;5031033;28;20079;-47
2023/04/07 02:06:09;;;;;;;7.88;3.50;;;3.50;99.90;;;;;;5030890;28;20037;-44
2023/04/07 02:08:37;;;;;;;8.50;3.70;;;3.50;99.90;;;;;;5031144;28;20030;-46
2023/04/07 02:11:06;;;;;;;8.20;3.55;;;3.40;99.90;;;;;;5030785;28;20071;-43
2023/04/07 02:13:34;;;;;;;9.30;3.97;;;3.40;99.90;;;;;;5031075;28;20053;-54
2023/04/07 02:16:01;;;;;;;7.68;4.05;;;3.40;99.90;;;;;;5030788;28;20029;-44
2023/04/07 02:18:29;;;;;;;8.57;3.88;;;3.40;99.90;;;;;;5031004;28;20022;-44
2023/04/07 02:20:55;;;;;;;9.38;3.95;;;3.40;99.90;;;;;;5030849;28;20112;-44
2023/04/07 02:23:21;;;;;;;7.20;3.85;;;3.30;99.90;;;;;;5030640;28;20109;-46
2023/04/07 02:25:46;;;;;;;10.27;3.85;;;3.30;99.90;;;;;;5030782;28;20495;-48
2023/04/07 02:28:12;;;;;;;8.30;3.80;;;3.20;99.90;;;;;;5030678;28;20025;-43
2023/04/07 02:30:38;;;;;;;9.75;3.80;;;3.30;99.90;;;;;;5030879;28;20018;-44
2023/04/07 02:33:04;;;;;;;8.00;3.47;;;3.20;99.90;;;;;;5030552;28;20033;-44
2023/04/07 02:35:30;;;;;;;6.55;3.47;;;3.20;99.90;;;;;;5030698;28;20028;-46
2023/04/07 02:37:55;;;;;;;7.63;3.65;;;3.30;99.90;;;;;;5030555;28;20105;-44
2023/04/07 02:40:21;;;;;;;7.75;3.65;;;3.30;99.90;;;;;;5030394;28;20132;-47
2023/04/07 02:42:47;;;;;;;9.43;3.28;;;3.40;99.90;;;;;;5030424;28;20037;-44
2023/04/07 02:45:12;;;;;;;8.30;3.13;;;3.30;99.90;;;;;;5035775;28;20792;-44
2023/04/07 02:47:38;;;;;;;7.55;3.30;;;3.40;99.90;;;;;;5036899;28;20021;-44
2023/04/07 02:50:05;;;;;;;6.60;2.90;;;3.50;99.90;;;;;;5037301;28;20117;-46
2023/04/07 02:52:30;;;;;;;11.00;3.25;;;3.60;99.90;;;;;;5036799;28;20032;-46
2023/04/07 02:54:56;;;;;;;6.55;3.03;;;3.60;99.90;;;;;;5037055;28;20049;-44
2023/04/07 02:57:22;;;;;;;9.65;3.40;;;3.70;99.90;;;;;;5036989;28;20492;-46
2023/04/07 02:59:47;;;;;;;10.90;3.28;;;3.70;99.90;;;;;;5037093;28;20439;-45
2023/04/07 03:02:13;;;;;;;13.80;3.63;;;3.80;99.90;;;;;;5037058;28;20040;-44
2023/04/07 03:04:38;;;;;;;6.75;3.00;;;3.80;99.90;;;;;;5036959;28;20013;-44
2023/04/07 03:07:04;;;;;;;11.48;4.07;;;3.80;99.90;;;;;;5036984;28;20120;-44
2023/04/07 03:09:30;;;;;;;14.05;3.20;;;3.80;99.90;;;;;;5036872;28;20036;-44
2023/04/07 03:11:55;;;;;;;8.55;3.17;;;3.90;99.90;;;;;;5037001;28;20029;-44
2023/04/07 03:14:21;;;;;;;5.72;2.90;;;3.80;99.90;;;;;;5036900;28;20025;-43
2023/04/07 03:16:47;;;;;;;5.53;2.55;;;3.80;99.90;;;;;;5036943;28;20488;-43
2023/04/07 03:19:12;;;;;;;11.68;3.20;;;3.80;99.90;;;;;;5035662;28;20084;-44
2023/04/07 03:21:38;;;;;;;6.65;2.97;;;3.70;99.90;;;;;;5036579;28;20040;-44
2023/04/07 03:24:05;;;;;;;10.82;2.92;;;3.70;99.90;;;;;;5036734;28;20021;-47
2023/04/07 03:26:31;;;;;;;5.18;2.92;;;3.70;99.90;;;;;;5036906;28;20021;-45
2023/04/07 03:28:57;;;;;;;6.45;2.80;;;3.70;99.90;;;;;;5036818;28;20498;-43
2023/04/07 03:31:23;;;;;;;9.73;2.63;;;3.60;99.90;;;;;;5036726;28;20109;-44
2023/04/07 03:33:49;;;;;;;7.13;2.97;;;3.60;99.90;;;;;;5036772;28;20048;-44
2023/04/07 03:36:16;;;;;;;6.50;2.80;;;3.50;99.90;;;;;;5036676;28;20184;-47
2023/04/07 03:38:42;;;;;;;5.22;3.17;;;3.50;99.90;;;;;;5036739;28;20021;-44
2023/04/07 03:41:08;;;;;;;5.47;2.70;;;3.50;99.90;;;;;;5036626;28;20115;-46
2023/04/07 03:43:33;;;;;;;6.38;2.60;;;3.50;99.90;;;;;;5036528;28;20034;-44
2023/04/07 03:45:59;;;;;;;4.30;2.60;;;3.50;99.90;;;;;;5036796;28;20031;-44
2023/04/07 03:48:25;;;;;;;7.63;2.55;;;3.50;99.90;;;;;;5036682;28;20480;-44
2023/04/07 03:50:50;;;;;;;7.90;2.60;;;3.50;99.90;;;;;;5036479;28;20022;-44
2023/04/07 03:53:18;;;;;;;7.95;3.20;;;3.50;99.90;;;;;;5036532;28;20025;-47
2023/04/07 03:55:44;;;;;;;6.80;2.65;;;3.50;99.90;;;;;;5034519;28;20741;-44
2023/04/07 03:58:09;;;;;;;6.60;3.00;;;3.40;99.90;;;;;;5033516;28;20025;-46
2023/04/07 04:00:35;;;;;;;5.97;3.05;;;3.30;99.90;;;;;;5032009;28;20025;-45
2023/04/07 04:03:01;;;;;;;6.57;2.75;;;3.20;99.90;;;;;;5032019;28;20040;-46
2023/04/07 04:05:27;;;;;;;6.57;2.60;;;3.20;99.90;;;;;;5033384;28;20029;-47
2023/04/07 04:07:52;;;;;;;10.80;3.17;;;3.20;99.90;;;;;;5033200;28;20072;-45
2023/04/07 04:10:19;;;;;;;8.25;2.65;;;3.20;99.90;;;;;;5033307;28;20060;-45
2023/04/07 04:12:47;;;;;;;4.95;2.35;;;3.10;99.90;;;;;;5033124;28;20444;-46
2023/04/07 04:15:13;;;;;;;6.18;2.60;;;3.10;99.90;;;;;;5033232;28;20079;-45
2023/04/07 04:17:38;;;;;;;8.50;2.75;;;3.10;99.90;;;;;;5033030;28;20384;-45
2023/04/07 04:20:05;;;;;;;8.77;2.70;;;3.10;99.90;;;;;;5033084;28;20096;-44
2023/04/07 04:22:30;;;;;;;8.45;3.00;;;3.00;99.90;;;;;;5032919;28;20037;-44
2023/04/07 04:24:56;;;;;;;7.10;2.70;;;3.00;99.90;;;;;;5033316;28;20113;-44
2023/04/07 04:27:22;;;;;;;8.95;2.78;;;3.00;99.90;;;;;;5032714;28;20155;-44
2023/04/07 04:29:47;;;;;;;7.45;2.90;;;2.90;99.90;;;;;;5032738;28;20096;-44
2023/04/07 04:32:13;;;;;;;8.07;3.38;;;2.90;99.90;;;;;;5032972;28;20456;-45
2023/04/07 04:34:40;;;;;;;7.18;3.20;;;2.80;99.90;;;;;;5032668;28;20087;-47
2023/04/07 04:37:06;;;;;;;7.63;3.20;;;2.80;99.90;;;;;;5032823;28;20384;-45
2023/04/07 04:39:32;;;;;;;8.23;3.20;;;2.80;99.90;;;;;;5032498;28;20041;-44
2023/04/07 04:41:58;;;;;;;5.15;2.60;;;2.80;99.90;;;;;;5032526;28;20038;-46
2023/04/07 04:44:23;;;;;;;9.60;3.08;;;2.80;99.90;;;;;;5032742;28;20026;-47
2023/04/07 04:46:50;;;;;;;11.60;3.38;;;2.70;99.90;;;;;;5032481;28;20022;-44
2023/04/07 04:49:17;;;;;;;7.63;3.25;;;2.60;99.90;;;;;;5032573;28;20079;-44
2023/04/07 04:51:43;;;;;;;7.50;2.95;;;2.50;99.90;;;;;;5032557;28;20030;-44
2023/04/07 04:54:09;;;;;;;6.32;3.00;;;2.50;99.90;;;;;;5032491;28;20017;-45
2023/04/07 04:56:35;;;;;;;8.07;3.40;;;2.40;99.90;;;;;;5032480;28;20032;-44
2023/04/07 04:59:04;;;;;;;7.82;3.05;;;2.40;99.90;;;;;;5032261;28;20041;-44
2023/04/07 05:01:30;;;;;;;7.82;2.92;;;2.40;99.90;;;;;;5031041;28;20112;-44
2023/04/07 05:03:56;;;;;;;7.55;3.20;;;2.30;99.90;;;;;;5032017;28;20128;-44
2023/04/07 05:06:21;;;;;;;7.43;3.05;;;2.30;99.90;;;;;;5032336;28;20021;-46
2023/04/07 05:08:47;;;;;;;8.85;3.03;;;2.30;99.90;;;;;;5030832;28;20021;-44
2023/04/07 05:11:13;;;;;;;8.52;3.40;;;2.30;99.90;;;;;;5032135;28;20028;-49
2023/04/07 05:13:39;;;;;;;7.03;2.95;;;2.40;99.90;;;;;;5032117;28;20570;-45
2023/04/07 05:16:05;;;;;;;6.57;2.88;;;2.50;99.90;;;;;;5032103;28;20465;-46
2023/04/07 05:18:31;;;;;;;6.88;2.97;;;2.50;99.90;;;;;;5032012;28;20029;-44
2023/04/07 05:20:56;;;;;;;11.18;2.95;;;2.40;99.90;;;;;;5031822;28;20158;-44
2023/04/07 05:23:22;;;;;;;9.95;3.00;;;2.50;99.90;;;;;;5031915;28;20029;-47
2023/04/07 05:25:47;;;;;;;6.18;2.80;;;2.50;99.90;;;;;;5031647;28;20021;-49
2023/04/07 05:28:13;;;;;;;7.00;2.80;;;2.50;99.90;;;;;;5031735;28;20033;-46
2023/04/07 05:30:39;;;;;;;8.68;3.05;;;2.60;99.90;;;;;;5031853;28;20031;-44
2023/04/07 05:33:05;;;;;;;5.03;2.60;;;2.60;99.90;;;;;;5031241;28;20114;-45
2023/04/07 05:35:31;;;;;;;6.85;3.08;;;2.60;99.90;;;;;;5031530;28;20053;-49
2023/04/07 05:37:56;;;;;;;7.57;2.85;;;2.60;99.90;;;;;;5031602;28;20025;-44
2023/04/07 05:40:22;;;;;;;7.35;3.17;;;2.70;99.90;;;;;;5031360;28;20037;-44
2023/04/07 05:42:47;;;;;;;7.30;3.28;;;2.70;99.90;;;;;;5031360;28;20464;-46
2023/04/07 05:45:13;;;;;;;8.93;3.15;;;2.80;99.90;;;;;;5031329;28;20116;-44
2023/04/07 05:47:39;;;;;;;9.15;3.30;;;2.80;99.90;;;;;;5031205;28;20225;-44
2023/04/07 05:50:05;;;;;;;10.82;3.85;;;3.00;99.90;;;;;;5031348;28;20097;-44
2023/04/07 05:52:31;;;;;;;10.23;3.75;;;3.10;99.90;;;;;;5031344;28;20033;-44
2023/04/07 05:54:57;;;;;;;11.93;3.65;;;3.20;99.90;;;;;;5031111;28;20025;-45
2023/04/07 05:57:22;;;;;;;8.30;3.50;;;3.20;99.90;;;;;;5031200;28;20036;-44
2023/04/07 05:59:48;;;;;;;9.60;3.42;;;3.20;99.90;;;;;;5031253;28;20091;-44
2023/04/07 06:02:14;;;;;;;11.55;3.88;;;3.30;99.90;;;;;;5030930;28;20489;-44
2023/04/07 06:04:39;;;;;;;8.35;3.83;;;3.30;99.90;;;;;;5031325;28;20021;-45
2023/04/07 06:07:06;;;;;;;11.63;3.70;;;3.30;99.90;;;;;;5031051;28;20075;-45
2023/04/07 06:09:31;;;;;;;6.45;3.20;;;3.40;99.90;;;;;;5031135;28;20099;-45
2023/04/07 06:11:57;;;;;;;8.98;3.50;;;3.40;99.90;;;;;;5030803;28;20494;-47
2023/04/07 06:14:23;;;;;;;6.68;3.33;;;3.40;99.90;;;;;;5031038;28;20100;-46
2023/04/07 06:16:49;;;;;;;8.15;3.22;;;3.50;99.90;;;;;;5030705;28;20472;-49
2023/04/07 06:19:14;;;;;;;11.13;3.60;;;3.50;99.90;;;;;;5030348;28;20029;-51
2023/04/07 06:21:40;;;;;;;6.30;3.17;;;3.60;99.90;;;;;;5030688;28;20018;-44
2023/04/07 06:24:06;;;;;;;6.70;3.30;;;3.60;99.90;;;;;;5030629;28;20021;-44
2023/04/07 06:26:32;;;;;;;10.52;3.28;;;3.60;99.90;;;;;;5030806;28;20358;-44
2023/04/07 06:28:58;;;;;;;8.32;3.00;;;3.70;99.90;;;;;;5029574;28;20108;-45
2023/04/07 06:31:24;;;;;;;8.82;3.90;;;3.80;99.90;;;;;;5030546;28;20421;-44
2023/04/07 06:33:50;;;;;;;8.30;3.50;;;3.90;99.90;;;;;;5030837;28;20083;-44
2023/04/07 06:36:16;;;;;;;8.00;3.13;;;4.00;99.90;;;;;;5030578;28;20108;-47
2023/04/07 06:38:42;;;;;;;11.30;2.90;;;4.10;99.90;;;;;;5030831;28;20026;-44
2023/04/07 06:41:11;;;;;;;4.90;2.72;;;4.20;99.90;;;;;;5030512;28;20056;-45
2023/04/07 06:43:37;;;;;;;6.60;3.15;;;4.30;99.90;;;;;;5030545;28;20139;-44
2023/04/07 06:46:03;;;;;;;8.20;3.10;;;4.40;99.90;;;;;;5029326;28;20112;-44
2023/04/07 06:48:28;;;;;;;7.25;3.25;;;4.60;99.90;;;;;;5030543;28;20022;-50
2023/04/07 06:50:54;;;;;;;6.90;2.90;;;4.60;99.90;;;;;;5030580;28;20026;-45
2023/04/07 06:53:19;;;;;;;8.73;2.80;;;4.80;99.90;;;;;;5030331;28;20022;-45
2023/04/07 06:55:45;;;;;;;9.77;3.58;;;4.90;99.90;;;;;;5030188;28;20106;-44
2023/04/07 06:58:11;;;;;;;11.82;3.92;;;5.20;99.90;;;;;;5030523;28;20038;-47
2023/04/07 07:00:36;;;;;;;7.63;3.67;;;6.40;99.90;;;;;;5029979;28;20369;-47
2023/04/07 07:03:02;;;;;;;8.05;2.83;;;7.90;99.90;;;;;;5030171;28;20038;-47
2023/04/07 07:05:27;;;;;;;9.10;3.22;;;10.10;99.90;;;;;;5027360;28;20030;-45
2023/04/07 07:07:53;;;;;;;8.02;2.50;;;11.80;99.90;;;;;;5026342;28;20136;-44
2023/04/07 07:10:21;;;;;;;8.07;1.88;;;13.80;99.90;;;;;;5026287;28;20033;-43
2023/04/07 07:12:48;;;;;;;4.90;1.92;;;15.70;99.90;;;;;;5017408;28;20052;-43
2023/04/07 07:15:14;;;;;;;6.28;1.70;;;16.90;97.30;;;;;;5020328;28;20072;-48
2023/04/07 07:17:40;;;;;;;8.75;2.20;;;18.00;92.90;;;;;;5030255;28;20033;-44
2023/04/07 07:20:06;;;;;;;10.07;2.30;;;18.80;83.00;;;;;;5030301;28;20105;-46
2023/04/07 07:22:32;;;;;;;7.22;1.65;;;19.90;81.50;;;;;;5029895;28;20033;-44
2023/04/07 07:24:57;;;;;;;9.45;2.35;;;20.30;77.90;;;;;;5030376;28;20026;-47
2023/04/07 07:27:23;;;;;;;8.43;1.92;;;20.90;69.70;;;;;;5030220;28;20029;-46
2023/04/07 07:29:49;;;;;;;7.03;2.20;;;22.00;71.10;;;;;;5030060;28;20087;-47
2023/04/07 07:32:14;;;;;;;7.15;2.08;;;22.50;66.50;;;;;;5033095;28;20030;-49
2023/04/07 07:34:40;;;;;;;7.95;2.25;;;23.00;61.40;;;;;;5030738;28;20064;-45
2023/04/07 07:37:05;;;;;;;5.45;1.98;;;22.40;61.40;;;;;;5033759;28;20036;-48
2023/04/07 07:39:31;;;;;;;8.68;2.35;;;22.90;59.80;;;;;;5033736;28;20072;-44
2023/04/07 07:41:57;;;;;;;5.50;2.00;;;23.50;58.70;;;;;;5033789;28;20048;-47
2023/04/07 07:44:22;;;;;;;7.50;2.05;;;23.40;56.50;;;;;;5033515;28;20026;-47
2023/04/07 07:46:49;;;;;;;8.30;2.22;;;23.50;57.00;;;;;;5033811;28;20025;-47
2023/04/07 07:49:15;;;;;;;6.03;1.83;;;24.10;55.20;;;;;;5033512;28;20029;-46
2023/04/07 07:51:41;;;;;;;6.18;1.85;;;24.80;55.30;;;;;;5033538;28;20463;-47
2023/04/07 07:54:08;;;;;;;6.78;2.63;;;25.30;54.40;;;;;;5032212;28;20033;-48
2023/04/07 07:56:34;;;;;;;5.32;2.13;;;25.30;52.20;;;;;;5033601;28;20104;-48
2023/04/07 07:58:59;;;;;;;6.82;2.10;;;25.70;51.70;;;;;;5032977;28;20117;-47
2023/04/07 08:01:25;;;;;;;7.85;2.30;;;25.90;53.70;;;;;;5033464;28;20057;-46
2023/04/07 08:03:51;;;;;;;7.93;2.17;;;25.50;53.30;;;;;;5033088;28;20399;-45
2023/04/07 08:06:16;;;;;;;6.18;2.22;;;25.50;52.30;;;;;;5033337;28;20022;-47
2023/04/07 08:08:42;;;;;;;5.18;1.88;;;25.90;51.20;;;;;;5031895;28;20036;-47
2023/04/07 08:11:07;;;;;;;5.65;1.77;;;26.30;49.60;;;;;;5033147;28;20029;-48
2023/04/07 08:13:33;;;;;;;6.55;1.92;;;26.80;49.50;;;;;;5032916;28;20025;-49
2023/04/07 08:15:59;;;;;;;4.75;1.50;;;26.20;50.30;;;;;;5032620;28;20021;-46
2023/04/07 08:18:24;;;;;;;6.57;1.80;;;26.70;51.60;;;;;;5032482;28;20369;-46
2023/04/07 08:20:50;;;;;;;5.32;2.00;;;27.00;49.20;;;;;;5031282;28;20091;-44
2023/04/07 08:23:16;;;;;;;6.78;1.92;;;27.50;50.00;;;;;;5032801;28;20045;-45
2023/04/07 08:25:42;;;;;;;5.88;1.60;;;28.00;48.40;;;;;;5032761;28;20025;-45
2023/04/07 08:28:07;;;;;;;3.95;1.50;;;28.00;46.20;;;;;;5032594;28;20114;-44
2023/04/07 08:30:33;;;;;;;4.72;1.60;;;26.40;50.00;;;;;;5032723;28;20094;-44
2023/04/07 08:32:59;;;;;;;5.80;1.50;;;25.20;49.90;;;;;;5032510;28;20045;-45
2023/04/07 08:35:24;;;;;;;4.40;1.42;;;25.20;52.10;;;;;;5032612;28;20020;-46
2023/04/07 08:37:50;;;;;;;2.15;1.10;;;26.30;49.20;;;;;;5032216;28;20080;-45
2023/04/07 08:40:16;;;;;;;2.85;1.02;;;27.30;49.70;;;;;;5031843;28;20421;-46
2023/04/07 08:42:45;;;;;;;6.55;1.30;;;28.20;49.90;;;;;;5032053;28;20116;-46
2023/04/07 08:45:12;;;;;;;3.83;1.20;;;28.80;46.80;;;;;;5032709;28;20025;-47
2023/04/07 08:47:40;;;;;;;4.20;1.30;;;28.60;47.20;;;;;;5032547;28;20029;-48
2023/04/07 08:50:08;;;;;;;4.15;1.17;;;28.00;44.10;;;;;;5032419;28;20036;-47
2023/04/07 08:52:37;;;;;;;4.13;1.00;;;27.50;45.90;;;;;;5032058;28;20495;-45
2023/04/07 08:55:05;;;;;;;3.45;1.17;;;27.80;48.00;;;;;;5032136;28;20033;-45
2023/04/07 08:57:32;;;;;;;4.13;0.93;;;27.60;44.30;;;;;;5032395;28;20029;-47
2023/04/07 09:00:05;;;;;;;3.03;0.98;;;28.00;48.30;;;;;;5032687;28;20030;-45
2023/04/07 09:02:37;;;;;;;3.15;0.80;;;28.70;47.70;;;;;;5032258;28;20048;-44
2023/04/07 09:05:04;;;;;;;1.73;0.70;;;29.90;45.00;;;;;;5032073;28;20116;-45
2023/04/07 09:07:32;;;;;;;4.63;1.05;;;30.60;44.30;;;;;;5031906;28;20018;-45
2023/04/07 09:09:58;;;;;;;4.88;1.00;;;30.10;42.40;;;;;;5032320;28;20057;-44
2023/04/07 09:12:24;;;;;;;3.65;0.88;;;30.30;42.80;;;;;;5031595;28;20079;-45
2023/04/07 09:14:49;;;;;;;2.45;0.80;;;29.60;43.40;;;;;;5031861;28;20045;-46
2023/04/07 09:17:15;;;;;;;1.20;0.50;;;29.10;43.00;;;;;;5031906;28;20053;-45
2023/04/07 09:19:40;;;;;;;2.78;0.90;;;28.80;45.30;;;;;;5031639;28;20393;-45
2023/04/07 09:22:07;;;;;;;3.20;0.70;;;28.60;41.80;;;;;;5030415;28;20025;-45
2023/04/07 09:24:33;;;;;;;1.90;0.80;;;28.20;42.20;;;;;;5031609;28;20014;-45
2023/04/07 09:27:12;;;;;;;1.63;0.70;;;28.50;45.20;;;;;;5031555;28;20029;-45
2023/04/07 09:29:40;;;;;;;1.77;0.60;;;29.00;43.60;;;;;;5031593;28;20029;-44
2023/04/07 09:32:06;;;;;;;2.58;0.80;;;29.00;42.90;;;;;;5031017;28;20033;-49
2023/04/07 09:34:34;;;;;;;3.65;0.90;;;27.40;43.60;;;;;;5029721;28;20079;-45
2023/04/07 09:37:01;;;;;;;5.53;0.90;;;28.90;44.40;;;;;;5029720;28;20473;-49
2023/04/07 09:39:26;;;;;;;2.72;0.80;;;29.70;40.90;;;;;;5029303;28;20045;-47
2023/04/07 09:41:52;;;;;;;2.22;0.80;;;30.50;41.10;;;;;;5029524;28;20071;-51
2023/04/07 09:44:19;;;;;;;2.75;0.80;;;31.70;40.70;;;;;;5031281;28;20111;-48
2023/04/07 09:46:53;;;;;;;1.80;0.70;;;31.00;40.40;;;;;;5031010;28;20036;-47
2023/04/07 09:49:20;;;;;;;2.55;0.60;;;30.70;40.40;;;;;;5028435;28;20040;-45
2023/04/07 09:51:59;;;;;;;3.42;0.80;;;31.50;40.10;;;;;;5031143;28;20022;-45
2023/04/07 09:54:34;;;;;;;3.08;0.80;;;31.80;40.00;;;;;;5030672;28;20065;-44
2023/04/07 09:57:02;;;;;;;2.28;0.93;;;32.60;38.80;;;;;;5030967;28;20482;-44
2023/04/07 09:59:29;;;;;;;2.37;0.87;;;32.40;39.30;;;;;;5031313;28;20013;-44
2023/04/07 10:01:55;;;;;;;2.70;0.80;;;31.40;38.20;;;;;;5030934;28;20028;-44
2023/04/07 10:04:21;;;;;;;3.55;0.77;;;30.00;40.50;;;;;;5031182;28;20026;-44
2023/04/07 10:06:47;;;;;;;2.80;0.77;;;30.20;41.00;;;;;;5030981;28;20076;-46
2023/04/07 10:09:13;;;;;;;2.50;1.13;;;31.10;41.10;;;;;;5030900;28;20033;-44
2023/04/07 10:11:41;;;;;;;3.30;1.13;;;30.90;40.20;;;;;;5030970;28;20029;-46
2023/04/07 10:14:09;;;;;;;2.15;0.80;;;32.10;38.50;;;;;;5030744;28;20484;-45
2023/04/07 10:16:36;;;;;;;4.15;1.00;;;30.80;37.10;;;;;;5030882;28;20032;-45
2023/04/07 10:19:03;;;;;;;5.53;1.15;;;29.60;39.10;;;;;;5030990;28;20033;-48
2023/04/07 10:21:30;;;;;;;2.08;0.90;;;27.80;40.10;;;;;;5030957;28;20025;-45
2023/04/07 10:24:08;;;;;;;4.15;1.02;;;26.50;43.60;;;;;;5030624;28;20484;-44
2023/04/07 10:26:36;;;;;;;2.20;0.90;;;25.60;46.90;;;;;;5030632;28;20049;-44
2023/04/07 10:29:10;;;;;;;2.67;1.00;;;25.50;47.90;;;;;;5030288;28;20040;-47
2023/04/07 10:31:37;;;;;;;3.95;1.10;;;27.90;42.30;;;;;;5030614;28;20060;-48
2023/04/07 10:34:04;;;;;;;2.42;0.82;;;30.40;42.50;;;;;;5030489;28;20483;-45
2023/04/07 10:36:30;;;;;;;2.63;0.80;;;29.50;37.50;;;;;;5027113;28;20091;-45
2023/04/07 10:39:08;;;;;;;2.85;0.70;;;28.20;40.20;;;;;;5030616;28;20435;-44
2023/04/07 10:41:39;;;;;;;2.30;0.80;;;27.70;41.10;;;;;;5030318;28;20404;-44
2023/04/07 10:44:09;;;;;;;2.60;1.00;;;26.80;39.50;;;;;;5030735;28;20156;-47
2023/04/07 10:46:44;;;;;;;1.70;0.82;;;25.50;42.90;;;;;;5028458;28;20026;-44
2023/04/07 10:49:12;;;;;;;3.75;1.95;;;25.80;46.00;;;;;;5030201;28;20017;-49
2023/04/07 10:51:38;;;;;;;2.78;0.80;;;28.20;45.90;;;;;;5029032;28;20132;-48
2023/04/07 10:54:25;;;;;;;2.58;0.77;;;29.10;41.00;;;;;;5030030;28;20053;-46
2023/04/07 10:57:02;;;;;;;2.90;0.93;;;30.80;37.90;;;;;;5030058;28;20491;-47
2023/04/07 10:59:29;;;;;;;3.85;0.93;;;31.30;37.00;;;;;;5030036;28;20034;-44
2023/04/07 11:02:13;;;;;;;2.67;0.80;;;30.20;36.10;;;;;;5030253;28;20025;-43
2023/04/07 11:04:44;;;;;;;1.48;0.90;;;28.30;38.90;;;;;;5030519;28;20022;-43
2023/04/07 11:07:10;;;;;;;4.53;0.80;;;27.40;40.10;;;;;;5034116;28;20040;-45
2023/04/07 11:09:36;;;;;;;2.25;0.70;;;26.80;41.00;;;;;;5022949;28;20477;-43
2023/04/07 11:12:03;;;;;;;1.25;0.60;;;27.70;40.60;;;;;;5033714;28;20025;-44
2023/04/07 11:14:31;;;;;;;2.38;0.80;;;27.10;40.50;;;;;;5034098;28;20036;-45
2023/04/07 11:17:00;;;;;;;3.13;0.80;;;25.80;42.60;;;;;;5034044;28;20018;-45
2023/04/07 11:19:26;;;;;;;1.08;0.70;;;24.60;43.50;;;;;;5034172;28;20033;-48
2023/04/07 11:22:17;;;;;;;3.30;0.75;;;23.90;43.30;;;;;;5034138;28;20037;-44
2023/04/07 11:24:46;;;;;;;2.30;0.68;;;23.00;45.90;;;;;;5033590;28;20029;-50
2023/04/07 11:27:15;;;;;;;1.05;0.57;;;22.10;45.90;;;;;;5033814;28;20099;-43
2023/04/07 11:29:41;;;;;;;1.42;0.50;;;23.20;47.50;;;;;;5033667;28;20607;-45
2023/04/07 11:32:07;;;;;;;1.35;0.60;;;24.80;42.70;;;;;;5033693;28;20057;-49
2023/04/07 11:34:35;;;;;;;1.98;0.60;;;25.70;43.70;;;;;;5033782;28;20037;-46
2023/04/07 11:37:20;;;;;;;2.25;0.55;;;28.60;41.10;;;;;;5034044;28;20021;-47
2023/04/07 11:39:54;;;;;;;2.28;0.70;;;30.80;39.30;;;;;;5033491;28;20084;-47
2023/04/07 11:42:46;;;;;;;1.10;0.50;;;31.60;39.30;;;;;;5033782;28;20036;-44
2023/04/07 11:45:17;;;;;;;3.72;0.73;;;29.20;34.40;;;;;;5032110;28;20116;-45
2023/04/07 11:47:43;;;;;;;2.20;0.68;;;26.40;37.60;;;;;;5033401;28;20021;-42
2023/04/07 11:50:09;;;;;;;1.85;0.70;;;25.00;39.50;;;;;;5033191;28;20041;-46
2023/04/07 11:52:42;;;;;;;2.85;0.88;;;23.50;41.90;;;;;;5033160;28;20044;-47
2023/04/07 11:55:20;;;;;;;2.55;0.73;;;22.70;43.90;;;;;;5033275;28;20048;-45
2023/04/07 11:57:46;;;;;;;2.10;0.60;;;23.00;45.50;;;;;;5033326;28;20029;-43
2023/04/07 12:00:13;;;;;;;3.58;0.60;;;23.30;44.90;;;;;;5033358;28;20048;-51
2023/04/07 12:02:39;;;;;;;6.93;1.05;;;23.60;44.60;;;;;;5032826;28;20469;-45
2023/04/07 12:05:05;;;;;;;1.77;0.65;;;24.90;44.40;;;;;;5033407;28;20116;-43
2023/04/07 12:07:31;;;;;;;2.05;0.90;;;26.80;40.00;;;;;;5033148;28;20013;-45
2023/04/07 12:09:56;;;;;;;1.95;0.52;;;27.80;39.40;;;;;;5032944;28;20025;-44
2023/04/07 12:12:31;;;;;;;1.60;0.60;;;28.80;38.70;;;;;;5032634;28;20029;-46
2023/04/07 12:14:57;;;;;;;2.03;0.70;;;29.50;38.60;;;;;;5033246;28;20037;-50
2023/04/07 12:17:26;;;;;;;1.63;0.70;;;30.00;37.00;;;;;;5031689;28;20029;-47
2023/04/07 12:19:52;;;;;;;1.45;0.50;;;31.20;36.60;;;;;;5032218;28;20026;-45
2023/04/07 12:22:18;;;;;;;1.60;0.50;;;31.90;35.80;;;;;;5032615;28;20037;-46
2023/04/07 12:24:44;;;;;;;2.78;0.70;;;30.40;31.70;;;;;;5032686;28;20048;-44
2023/04/07 12:27:10;;;;;;;2.80;0.70;;;28.50;34.90;;;;;;5031526;28;20476;-47
2023/04/07 12:29:36;;;;;;;1.40;0.73;;;26.10;36.30;;;;;;5029553;28;20036;-43
2023/04/07 12:32:04;;;;;;;2.15;0.70;;;23.90;40.70;;;;;;5031298;28;20056;-44
2023/04/07 12:34:30;;;;;;;1.70;0.60;;;22.40;43.30;;;;;;5031840;28;20501;-44
2023/04/07 12:36:56;;;;;;;3.53;0.70;;;21.00;46.00;;;;;;5032087;28;20030;-43
2023/04/07 12:39:21;;;;;;;1.00;0.50;;;20.10;46.80;;;;;;5032145;28;20072;-46
2023/04/07 12:41:48;;;;;;;2.38;0.60;;;19.60;47.90;;;;;;5032390;28;20028;-45
2023/04/07 12:44:14;;;;;;;2.58;0.70;;;20.20;48.00;;;;;;5032526;28;20392;-43
2023/04/07 12:46:41;;;;;;;3.30;0.90;;;22.10;46.70;;;;;;5032340;28;20029;-46
2023/04/07 12:49:07;;;;;;;1.67;0.52;;;23.90;45.00;;;;;;5032557;28;20163;-43
2023/04/07 12:51:33;;;;;;;2.97;0.82;;;25.30;41.10;;;;;;5032213;28;20104;-43
2023/04/07 12:54:02;;;;;;;2.40;0.80;;;25.50;39.30;;;;;;5032447;28;20044;-46